Time;durP1;ratioP1;P1;durP2;ratioP2;P2;SDS_P1;SDS_P2;PMS_P1;PMS_P2;Temp;Humidity;BMP_temperature;BMP_pressure;BME280_temperature;BME280_humidity;BME280_pressure;Samples;Min_cycle;Max_cycle;Signal;HPM_P1;HPM_P2
2022/01/27 00:00:01;;;;;;;37.63;18.70;;;;;;;3.85;80.80;102770.88;5013942;28;20045;-60
2022/01/27 00:02:26;;;;;;;35.72;17.55;;;;;;;3.86;80.44;102755.31;5013403;28;20050;-60
2022/01/27 00:05:04;;;;;;;36.90;17.88;;;;;;;3.82;81.07;102752.38;5013767;28;20108;-60
2022/01/27 00:07:32;;;;;;;39.35;21.15;;;;;;;3.80;80.96;102756.56;4996005;28;20029;-60
2022/01/27 00:10:24;;;;;;;35.60;18.30;;;;;;;3.78;81.06;102746.03;5013631;28;20022;-60
2022/01/27 00:12:51;;;;;;;39.53;19.90;;;;;;;3.79;80.40;102739.09;5013528;28;20026;-60
2022/01/27 00:15:17;;;;;;;38.90;18.73;;;;;;;3.76;80.86;102724.97;5013511;28;20040;-60
2022/01/27 00:17:46;;;;;;;38.20;18.58;;;;;;;3.75;81.20;102711.81;5013300;28;20030;-60
2022/01/27 00:20:13;;;;;;;38.28;20.75;;;;;;;3.75;80.76;102702.25;5013448;28;20030;-60
2022/01/27 00:22:39;;;;;;;36.90;19.42;;;;;;;3.75;80.57;102707.47;5013248;28;20026;-60
2022/01/27 00:25:06;;;;;;;37.17;18.63;;;;;;;3.73;80.77;102709.09;4995681;28;20060;-60
2022/01/27 00:27:32;;;;;;;39.88;20.02;;;;;;;3.76;80.62;102705.78;5012883;28;20053;-60
2022/01/27 00:30:03;;;;;;;31.08;16.75;;;;;;;3.77;80.25;102705.00;5013307;28;20117;-60
2022/01/27 00:32:29;;;;;;;31.30;16.90;;;;;;;3.80;80.62;102707.78;5013326;28;20112;-60
2022/01/27 00:34:55;;;;;;;34.35;17.77;;;;;;;3.78;80.54;102714.66;5013430;28;20065;-60
2022/01/27 00:37:20;;;;;;;32.60;16.23;;;;;;;3.84;80.47;102714.16;5013221;28;20026;-60
2022/01/27 00:39:45;;;;;;;35.58;18.85;;;;;;;3.82;80.70;102715.78;5013231;28;20040;-60
2022/01/27 00:42:10;;;;;;;33.47;18.77;;;;;;;3.83;80.50;102714.97;5013342;28;20133;-60
2022/01/27 00:44:36;;;;;;;40.03;19.20;;;;;;;3.84;80.87;102701.06;5013268;28;20479;-60
2022/01/27 00:47:01;;;;;;;38.55;19.60;;;;;;;3.85;81.05;102703.78;4995429;28;20046;-60
2022/01/27 00:49:27;;;;;;;32.20;16.88;;;;;;;3.89;80.47;102697.06;5013321;28;20391;-60
2022/01/27 00:51:52;;;;;;;40.75;19.83;;;;;;;3.87;80.11;102688.22;5017096;28;20387;-60
2022/01/27 00:54:21;;;;;;;31.50;15.93;;;;;;;3.86;80.58;102684.69;5017020;28;20087;-60
2022/01/27 00:57:03;;;;;;;36.67;18.63;;;;;;;3.91;80.73;102690.22;5016978;28;20493;-60
2022/01/27 00:59:46;;;;;;;40.70;20.27;;;;;;;3.89;80.88;102689.22;5017126;28;20069;-60
2022/01/27 01:02:31;;;;;;;37.08;18.63;;;;;;;3.89;80.41;102689.22;5016885;28;20026;-60
2022/01/27 01:07:48;;;;;;;35.67;17.25;;;;;;;3.90;80.27;102675.34;4956319;29;20039;-60
2022/01/27 01:15:49;;;;;;;32.80;17.20;;;;;;;3.96;80.04;102675.75;4937110;29;20047;-60
2022/01/27 01:21:29;;;;;;;31.25;16.00;;;;;;;3.95;80.85;102653.03;4898992;29;20044;-60
2022/01/27 01:32:26;;;;;;;31.25;17.27;;;;;;;3.97;80.29;102652.31;4898907;29;20144;-60
2022/01/27 01:34:53;;;;;;;28.88;15.60;;;;;;;4.00;79.98;102646.38;4899054;29;20457;-60
2022/01/27 01:37:19;;;;;;;30.95;15.77;;;;;;;4.01;80.58;102645.56;4898738;29;20428;-60
2022/01/27 01:39:45;;;;;;;31.13;16.75;;;;;;;4.01;80.03;102642.94;4898721;29;20482;-60
2022/01/27 01:42:11;;;;;;;26.55;14.80;;;;;;;4.04;80.49;102644.88;4898776;29;20450;-60
2022/01/27 01:44:38;;;;;;;31.85;16.13;;;;;;;4.01;80.71;102619.41;4923952;29;20039;-60
2022/01/27 01:47:04;;;;;;;31.63;16.27;;;;;;;4.08;80.54;102603.31;4955602;29;20075;-60
2022/01/27 01:49:30;;;;;;;36.63;18.50;;;;;;;4.06;80.26;102612.75;4955757;29;20031;-60
2022/01/27 01:51:58;;;;;;;31.70;16.70;;;;;;;4.07;80.71;102619.84;4955562;29;20050;-60
2022/01/27 01:54:24;;;;;;;28.42;15.40;;;;;;;4.06;79.83;102620.63;4955594;29;20078;-60
2022/01/27 01:56:50;;;;;;;31.00;16.15;;;;;;;4.10;79.75;102635.72;4967463;28;20037;-60
2022/01/27 01:59:16;;;;;;;29.38;16.65;;;;;;;4.11;80.28;102634.00;5015806;28;20554;-60
2022/01/27 02:01:42;;;;;;;31.67;17.00;;;;;;;4.12;80.23;102630.59;5014966;28;20054;-60
2022/01/27 02:04:10;;;;;;;29.13;15.38;;;;;;;4.14;79.91;102623.75;5015892;28;20029;-59
2022/01/27 02:06:43;;;;;;;31.98;17.52;;;;;;;4.11;80.42;102619.22;5015838;28;20096;-60
2022/01/27 02:19:53;;;;;;;31.52;17.17;;;;;;;4.10;80.80;102567.69;5015736;28;20057;-60
2022/01/27 02:22:19;;;;;;;30.70;15.95;;;;;;;4.10;79.98;102572.03;5015376;28;20031;-60
2022/01/27 02:24:44;;;;;;;31.40;16.20;;;;;;;4.12;80.40;102570.44;5015277;28;20036;-60
2022/01/27 02:27:10;;;;;;;32.53;15.55;;;;;;;4.14;80.17;102572.31;5015343;28;20022;-60
2022/01/27 02:29:35;;;;;;;33.60;16.85;;;;;;;4.13;80.55;102574.84;5015107;28;20054;-60
2022/01/27 02:32:02;;;;;;;28.95;15.10;;;;;;;4.16;80.34;102588.13;5015279;28;20418;-60
2022/01/27 02:34:28;;;;;;;32.47;15.38;;;;;;;4.15;79.95;102568.00;5015308;28;20398;-60
2022/01/27 02:36:53;;;;;;;27.88;15.45;;;;;;;4.15;80.04;102576.72;5015170;28;20451;-60
2022/01/27 02:39:19;;;;;;;30.70;16.00;;;;;;;4.15;80.16;102574.13;5015374;28;20029;-60
2022/01/27 02:42:00;;;;;;;27.10;15.70;;;;;;;4.19;80.19;102570.91;5015241;28;20022;-60
2022/01/27 02:44:32;;;;;;;30.50;15.77;;;;;;;4.20;79.83;102563.97;5014962;28;20033;-60
2022/01/27 02:46:58;;;;;;;31.35;15.65;;;;;;;4.22;80.89;102555.41;5014958;28;20030;-60
2022/01/27 02:49:24;;;;;;;34.65;15.95;;;;;;;4.18;80.39;102555.13;5014956;28;20501;-60
2022/01/27 02:51:50;;;;;;;30.25;15.40;;;;;;;4.17;80.86;102569.00;5014799;28;20056;-60
2022/01/27 02:54:16;;;;;;;30.88;16.25;;;;;;;4.21;80.88;102553.59;5014859;28;20475;-60
2022/01/27 02:56:46;;;;;;;32.17;16.08;;;;;;;4.22;81.06;102558.03;5014783;28;20386;-60
2022/01/27 02:59:15;;;;;;;29.15;16.23;;;;;;;4.22;80.47;102551.88;5014784;28;20456;-60
2022/01/27 03:01:46;;;;;;;37.00;15.82;;;;;;;4.23;80.84;102527.53;4997057;28;20463;-60
2022/01/27 03:04:11;;;;;;;33.00;17.23;;;;;;;4.22;81.13;102513.53;5014739;28;20025;-59
2022/01/27 03:06:36;;;;;;;32.65;15.07;;;;;;;4.21;81.08;102496.03;4996863;28;20030;-60
2022/01/27 03:09:02;;;;;;;27.85;14.93;;;;;;;4.19;81.65;102508.09;5014596;28;20022;-60
2022/01/27 03:11:44;;;;;;;28.85;14.50;;;;;;;4.22;81.24;102531.84;5014451;28;20021;-60
2022/01/27 03:14:11;;;;;;;26.80;14.55;;;;;;;4.20;81.68;102541.34;5013550;28;20052;-60
2022/01/27 03:16:37;;;;;;;31.08;15.38;;;;;;;4.22;81.80;102526.63;5014399;28;20129;-60
2022/01/27 03:19:02;;;;;;;29.95;15.73;;;;;;;4.22;81.71;102521.38;5014379;28;20030;-60
2022/01/27 03:21:28;;;;;;;32.25;15.82;;;;;;;4.25;81.16;102518.97;5014465;28;20497;-60
2022/01/27 03:23:53;;;;;;;24.67;12.98;;;;;;;4.26;81.68;102510.31;4996698;28;20036;-60
2022/01/27 03:26:20;;;;;;;29.63;14.43;;;;;;;4.24;81.23;102504.09;5014247;28;20033;-60
2022/01/27 03:28:46;;;;;;;29.35;15.18;;;;;;;4.23;81.01;102504.88;5013989;28;20058;-60
2022/01/27 03:31:12;;;;;;;30.30;15.00;;;;;;;4.22;81.41;102500.47;5014250;28;20112;-60
2022/01/27 03:33:39;;;;;;;29.58;14.57;;;;;;;4.25;81.05;102489.28;5014048;28;20026;-60
2022/01/27 03:36:05;;;;;;;30.02;14.50;;;;;;;4.22;81.06;102491.72;5013978;28;20057;-60
2022/01/27 03:38:30;;;;;;;31.92;15.90;;;;;;;4.23;81.40;102485.66;5014060;28;20407;-60
2022/01/27 03:40:55;;;;;;;30.45;14.55;;;;;;;4.22;81.46;102484.75;5014073;28;20029;-60
2022/01/27 03:43:21;;;;;;;28.52;13.85;;;;;;;4.24;81.53;102487.50;5013963;28;20032;-60
2022/01/27 03:45:46;;;;;;;30.88;13.82;;;;;;;4.24;81.66;102497.97;5014032;28;20037;-60
2022/01/27 03:48:11;;;;;;;29.88;15.55;;;;;;;4.19;82.14;102492.41;5013789;28;20025;-60
2022/01/27 03:50:37;;;;;;;30.27;15.20;;;;;;;4.19;81.57;102488.88;5013805;28;20105;-60
2022/01/27 03:53:03;;;;;;;29.85;14.18;;;;;;;4.20;81.39;102498.56;5013726;28;20022;-60
2022/01/27 03:55:28;;;;;;;30.55;13.65;;;;;;;4.20;81.69;102495.97;5013799;28;20022;-60
2022/01/27 03:57:53;;;;;;;32.75;14.77;;;;;;;4.18;82.83;102492.31;5013715;28;20026;-60
2022/01/27 04:00:19;;;;;;;28.75;14.63;;;;;;;4.21;82.01;102488.19;5013678;28;20029;-60
2022/01/27 04:03:02;;;;;;;31.05;14.85;;;;;;;4.23;82.66;102490.91;5013567;28;20072;-60
2022/01/27 04:05:44;;;;;;;28.60;14.82;;;;;;;4.25;81.70;102468.38;5013407;28;20057;-60
2022/01/27 04:08:13;;;;;;;30.90;14.93;;;;;;;4.22;82.92;102462.94;5013573;28;20459;-60
2022/01/27 04:10:39;;;;;;;29.23;14.80;;;;;;;4.22;82.84;102457.69;5013491;28;20030;-60
2022/01/27 04:13:06;;;;;;;34.10;14.57;;;;;;;4.22;82.04;102449.84;5013569;28;20057;-60
2022/01/27 04:15:33;;;;;;;30.35;13.60;;;;;;;4.21;82.68;102462.03;5013649;28;20053;-60
2022/01/27 04:17:59;;;;;;;28.20;14.88;;;;;;;4.21;82.12;102468.97;5013726;28;20042;-60
2022/01/27 04:20:24;;;;;;;33.58;14.15;;;;;;;4.23;83.05;102454.25;5013685;28;20026;-60
2022/01/27 04:22:49;;;;;;;30.00;13.23;;;;;;;4.22;82.23;102450.75;5013408;28;20026;-60
2022/01/27 04:25:15;;;;;;;29.55;14.32;;;;;;;4.22;83.48;102434.16;5013091;28;20022;-60
2022/01/27 04:27:47;;;;;;;28.20;13.98;;;;;;;4.23;83.00;102443.78;5013079;28;20352;-60
2022/01/27 04:30:18;;;;;;;30.75;13.30;;;;;;;4.23;82.67;102438.56;5013368;28;20132;-60
2022/01/27 04:32:50;;;;;;;29.00;14.35;;;;;;;4.26;82.71;102449.22;5013065;28;20030;-60
2022/01/27 04:35:19;;;;;;;29.50;13.80;;;;;;;4.25;83.03;102448.31;5013370;28;20026;-60
2022/01/27 04:38:23;;;;;;;32.17;15.38;;;;;;;4.25;82.93;102431.72;5013254;28;20034;-60
2022/01/27 04:43:40;;;;;;;30.35;14.20;;;;;;;4.22;82.61;102423.69;5013399;28;20100;-60
2022/01/27 04:48:39;;;;;;;30.67;14.50;;;;;;;4.18;83.67;102412.13;5012761;28;20033;-58
2022/01/27 04:51:11;;;;;;;27.83;14.32;;;;;;;4.16;83.71;102425.94;5012999;28;20467;-59
2022/01/27 04:53:43;;;;;;;26.13;12.73;;;;;;;4.18;82.98;102419.06;5012987;28;20382;-60
2022/01/27 04:56:12;;;;;;;28.33;13.70;;;;;;;4.16;83.20;102426.84;5012684;28;20029;-58
2022/01/27 04:58:39;;;;;;;28.48;13.07;;;;;;;4.15;83.49;102409.31;5012989;28;20360;-60
2022/01/27 05:01:05;;;;;;;25.20;12.70;;;;;;;4.20;83.32;102407.00;5013265;28;20034;-60
2022/01/27 05:03:45;;;;;;;32.53;14.70;;;;;;;4.15;83.20;102405.78;5013063;28;20034;-60
2022/01/27 05:06:11;;;;;;;26.70;12.05;;;;;;;4.12;83.32;102400.41;5012982;28;20030;-60
2022/01/27 05:08:36;;;;;;;28.10;13.10;;;;;;;4.16;83.72;102399.78;5012931;28;20076;-60
2022/01/27 05:11:10;;;;;;;34.05;14.00;;;;;;;4.16;84.15;102391.94;5013097;28;20022;-60
2022/01/27 05:13:41;;;;;;;29.67;13.60;;;;;;;4.17;83.50;102389.41;5012971;28;20044;-60
2022/01/27 05:16:07;;;;;;;27.10;12.60;;;;;;;4.18;83.48;102393.81;5012964;28;20025;-60
2022/01/27 05:18:32;;;;;;;31.20;13.85;;;;;;;4.19;83.27;102393.00;5012747;28;20113;-60
2022/01/27 05:20:58;;;;;;;25.38;12.98;;;;;;;4.17;83.34;102389.41;5012755;28;20025;-60
2022/01/27 05:23:23;;;;;;;32.75;15.05;;;;;;;4.16;83.96;102400.66;5012836;28;20423;-60
2022/01/27 05:25:48;;;;;;;27.60;13.57;;;;;;;4.17;83.62;102383.25;5012939;28;20021;-60
2022/01/27 05:28:14;;;;;;;30.85;13.80;;;;;;;4.18;83.67;102375.50;5012707;28;20049;-60
2022/01/27 05:30:39;;;;;;;29.92;13.30;;;;;;;4.17;83.89;102367.56;5012846;28;20030;-59
2022/01/27 05:33:05;;;;;;;28.98;13.60;;;;;;;4.19;83.58;102372.06;5012640;28;20156;-60
2022/01/27 05:35:31;;;;;;;26.42;12.65;;;;;;;4.21;83.91;102373.06;5012685;28;20079;-60
2022/01/27 05:37:56;;;;;;;28.95;13.00;;;;;;;4.22;84.59;102366.13;5014991;28;20490;-60
2022/01/27 05:40:22;;;;;;;29.85;13.43;;;;;;;4.24;84.46;102365.41;5016272;28;20026;-60
2022/01/27 05:42:47;;;;;;;27.70;13.93;;;;;;;4.26;84.10;102362.88;5016189;28;20025;-60
2022/01/27 05:45:13;;;;;;;23.98;12.15;;;;;;;4.32;83.47;102362.34;5016166;28;20030;-60
2022/01/27 05:47:38;;;;;;;30.63;13.70;;;;;;;4.30;84.01;102362.25;5015997;28;20163;-60
2022/01/27 05:50:04;;;;;;;24.92;12.70;;;;;;;4.34;84.01;102355.50;5016137;28;20026;-60
2022/01/27 05:52:31;;;;;;;27.75;13.23;;;;;;;4.35;83.98;102357.31;5015883;28;20040;-60
2022/01/27 05:54:56;;;;;;;28.67;13.27;;;;;;;4.38;84.50;102357.50;5016001;28;20446;-60
2022/01/27 05:57:22;;;;;;;27.25;12.82;;;;;;;4.43;83.22;102369.13;5015855;28;20053;-60
2022/01/27 05:59:47;;;;;;;29.25;13.38;;;;;;;4.42;83.87;102351.63;5016093;28;20040;-60
2022/01/27 06:02:13;;;;;;;28.35;13.27;;;;;;;4.44;83.96;102357.84;5015839;28;20026;-60
2022/01/27 06:04:38;;;;;;;26.58;13.05;;;;;;;4.47;83.34;102361.56;5015877;28;20058;-60
2022/01/27 06:07:04;;;;;;;28.77;13.15;;;;;;;4.49;83.47;102352.06;5015646;28;20064;-60
2022/01/27 06:09:29;;;;;;;30.05;14.07;;;;;;;4.48;83.46;102349.38;5015685;28;20433;-60
2022/01/27 06:11:54;;;;;;;26.90;13.80;;;;;;;4.50;83.99;102355.63;5015701;28;20022;-60
2022/01/27 06:14:20;;;;;;;30.08;13.88;;;;;;;4.53;83.55;102337.44;5015682;28;20444;-60
2022/01/27 06:16:45;;;;;;;29.45;13.45;;;;;;;4.53;84.64;102340.06;5015431;28;20029;-60
2022/01/27 06:19:12;;;;;;;28.13;13.45;;;;;;;4.55;83.87;102346.31;5015608;28;20034;-60
2022/01/27 06:21:39;;;;;;;30.73;14.35;;;;;;;4.58;84.21;102340.34;5015561;28;20079;-60
2022/01/27 06:24:05;;;;;;;29.67;15.02;;;;;;;4.58;84.39;102332.47;5015346;28;20037;-60
2022/01/27 06:26:30;;;;;;;31.42;15.13;;;;;;;4.61;84.55;102330.06;5015446;28;20112;-60
2022/01/27 06:28:58;;;;;;;29.52;11.95;;;;;;;4.63;85.01;102346.78;5015122;28;20129;-60
2022/01/27 06:31:24;;;;;;;33.72;14.38;;;;;;;4.59;85.42;102334.31;5015315;28;20025;-60
2022/01/27 06:33:50;;;;;;;27.85;13.60;;;;;;;4.62;84.75;102335.38;5015189;28;20026;-60
2022/01/27 06:36:15;;;;;;;29.92;14.05;;;;;;;4.62;84.98;102339.72;5015333;28;20029;-60
2022/01/27 06:38:40;;;;;;;31.02;13.90;;;;;;;4.61;85.34;102338.81;5015061;28;20395;-60
2022/01/27 06:41:06;;;;;;;27.13;13.20;;;;;;;4.62;85.19;102334.47;5015310;28;20022;-60
2022/01/27 06:43:31;;;;;;;33.00;14.85;;;;;;;4.62;86.01;102322.28;5015014;28;20026;-60
2022/01/27 06:45:57;;;;;;;30.58;14.73;;;;;;;4.62;85.58;102316.16;5014991;28;20459;-60
2022/01/27 06:48:22;;;;;;;33.80;15.57;;;;;;;4.65;86.41;102311.09;5014632;28;20029;-60
2022/01/27 06:50:53;;;;;;;32.35;14.55;;;;;;;4.63;85.57;102308.41;5014899;28;20489;-60
2022/01/27 06:53:18;;;;;;;28.38;13.52;;;;;;;4.67;85.91;102302.53;5015008;28;20445;-60
2022/01/27 06:55:44;;;;;;;28.05;13.80;;;;;;;4.66;85.97;102313.78;5015019;28;20463;-60
2022/01/27 06:58:09;;;;;;;27.73;13.68;;;;;;;4.69;85.88;102313.97;5014730;28;20486;-60
2022/01/27 07:00:34;;;;;;;30.45;13.90;;;;;;;4.70;85.29;102313.16;5014722;28;20030;-60
2022/01/27 07:03:00;;;;;;;29.92;14.48;;;;;;;4.71;85.78;102295.72;5014573;28;20475;-60
2022/01/27 07:05:25;;;;;;;27.77;15.10;;;;;;;4.71;86.49;102308.81;5014622;28;20463;-60
2022/01/27 07:07:50;;;;;;;35.38;15.05;;;;;;;4.72;85.89;102311.56;5014609;28;20033;-60
2022/01/27 07:10:16;;;;;;;29.55;13.65;;;;;;;4.73;85.65;102302.88;5014441;28;20037;-60
2022/01/27 07:12:42;;;;;;;33.33;15.35;;;;;;;4.74;85.95;102309.91;5014559;28;20022;-60
2022/01/27 07:15:08;;;;;;;29.48;14.05;;;;;;;4.80;85.85;102300.59;5014512;28;20029;-60
2022/01/27 07:17:33;;;;;;;31.70;14.45;;;;;;;4.82;85.19;102306.84;5014490;28;20026;-60
2022/01/27 07:19:58;;;;;;;35.00;15.90;;;;;;;4.82;85.49;102310.34;5014358;28;20025;-60
2022/01/27 07:22:24;;;;;;;30.95;14.70;;;;;;;4.80;86.00;102317.25;5014372;28;20030;-60
2022/01/27 07:24:49;;;;;;;30.15;14.32;;;;;;;4.82;86.19;102314.69;5014194;28;20021;-60
2022/01/27 07:27:14;;;;;;;33.40;16.25;;;;;;;4.82;85.99;102323.44;5014105;28;20514;-60
2022/01/27 07:29:40;;;;;;;34.70;15.90;;;;;;;4.87;85.52;102322.00;5014090;28;20042;-60
2022/01/27 07:32:06;;;;;;;31.63;14.07;;;;;;;4.86;85.72;102324.53;4996457;28;20069;-60
2022/01/27 07:34:31;;;;;;;35.67;15.57;;;;;;;4.91;85.55;102331.84;5014143;28;20022;-60
2022/01/27 07:36:59;;;;;;;35.10;15.45;;;;;;;4.92;85.45;102330.09;5014066;28;20029;-60
2022/01/27 07:39:25;;;;;;;34.92;16.95;;;;;;;4.92;85.94;102327.50;5014069;28;20093;-60
2022/01/27 07:41:51;;;;;;;30.42;14.65;;;;;;;4.96;85.83;102326.84;5013904;28;20160;-60
2022/01/27 07:44:16;;;;;;;34.55;15.75;;;;;;;4.97;85.52;102326.97;5013949;28;20386;-60
2022/01/27 07:46:42;;;;;;;34.55;15.07;;;;;;;5.01;85.71;102328.94;5013937;28;20029;-60
2022/01/27 07:49:07;;;;;;;35.03;15.30;;;;;;;5.01;86.06;102314.91;5013809;28;20029;-60
2022/01/27 07:51:33;;;;;;;31.55;15.07;;;;;;;5.02;86.37;102317.66;5013844;28;20463;-60
2022/01/27 07:53:58;;;;;;;36.45;15.02;;;;;;;5.03;86.39;102315.91;5013816;28;20113;-60
2022/01/27 07:56:23;;;;;;;36.08;15.60;;;;;;;5.03;86.99;102331.63;5013573;28;20022;-60
2022/01/27 07:58:49;;;;;;;37.58;15.55;;;;;;;5.06;87.02;102323.97;5013559;28;20073;-60
2022/01/27 08:01:14;;;;;;;36.03;16.48;;;;;;;5.03;87.93;102340.41;5013288;28;20060;-60
2022/01/27 08:03:39;;;;;;;32.72;15.82;;;;;;;5.00;87.74;102332.34;5013563;28;20037;-60
2022/01/27 08:06:06;;;;;;;39.55;16.95;;;;;;;5.01;88.09;102334.19;5013614;28;20093;-60
2022/01/27 08:08:32;;;;;;;35.03;16.13;;;;;;;5.00;88.94;102337.59;5013589;28;20061;-60
2022/01/27 08:10:58;;;;;;;34.35;16.75;;;;;;;4.96;89.63;102333.00;5013571;28;20080;-60
2022/01/27 08:13:24;;;;;;;37.45;16.45;;;;;;;4.95;90.41;102338.16;5013697;28;20112;-60
2022/01/27 08:15:50;;;;;;;39.15;16.33;;;;;;;4.96;89.45;102335.59;5013587;28;20033;-61
2022/01/27 08:18:15;;;;;;;33.60;16.42;;;;;;;4.94;90.39;102333.75;5013529;28;20040;-60
2022/01/27 08:20:40;;;;;;;41.20;17.98;;;;;;;4.95;90.40;102327.69;5013427;28;20057;-60
2022/01/27 08:23:06;;;;;;;41.53;17.20;;;;;;;4.95;90.72;102325.06;5013409;28;20080;-61
2022/01/27 08:25:33;;;;;;;37.75;16.52;;;;;;;4.93;90.91;102330.22;5013338;28;20021;-60
2022/01/27 08:28:02;;;;;;;41.08;17.85;;;;;;;4.94;90.87;102331.13;5012906;28;20046;-61
2022/01/27 08:30:30;;;;;;;35.63;17.13;;;;;;;4.93;91.58;102324.09;5013343;28;20029;-60
2022/01/27 08:33:04;;;;;;;38.13;17.05;;;;;;;4.95;90.59;102322.44;5013284;28;20394;-60
2022/01/27 08:35:30;;;;;;;37.83;17.58;;;;;;;4.94;90.77;102325.88;5013341;28;20456;-60
2022/01/27 08:37:55;;;;;;;39.05;18.08;;;;;;;4.93;91.40;102322.38;5013348;28;20109;-60
2022/01/27 08:40:20;;;;;;;41.45;16.10;;;;;;;4.97;91.00;102310.34;5013346;28;20368;-62
2022/01/27 08:42:46;;;;;;;42.53;17.95;;;;;;;4.98;91.54;102323.53;5013342;28;20069;-60
2022/01/27 08:45:15;;;;;;;37.92;18.08;;;;;;;4.98;91.55;102317.38;5013234;28;20490;-61
2022/01/27 08:47:42;;;;;;;43.20;18.75;;;;;;;5.00;91.70;102323.59;5013022;28;20038;-61
2022/01/27 08:50:10;;;;;;;36.92;17.25;;;;;;;5.00;91.38;102315.75;5013153;28;20030;-60
2022/01/27 08:52:36;;;;;;;37.30;17.17;;;;;;;5.01;91.53;102335.88;5013136;28;20026;-61
2022/01/27 08:55:06;;;;;;;39.75;18.02;;;;;;;5.02;92.08;102332.47;5013069;28;20030;-61
2022/01/27 08:57:32;;;;;;;41.20;18.35;;;;;;;5.04;91.81;102320.34;5013447;28;20022;-60
2022/01/27 08:59:57;;;;;;;42.30;18.55;;;;;;;5.07;91.62;102320.53;5013034;28;20037;-61
2022/01/27 09:02:23;;;;;;;45.15;20.95;;;;;;;5.11;92.11;102324.22;5012910;28;20080;-61
2022/01/27 09:04:49;;;;;;;41.42;19.75;;;;;;;5.11;92.17;102324.22;5013046;28;20025;-61
2022/01/27 09:07:15;;;;;;;39.10;17.92;;;;;;;5.13;92.27;102325.19;5013098;28;20037;-61
2022/01/27 09:09:42;;;;;;;41.50;17.80;;;;;;;5.15;92.70;102315.72;5012901;28;20038;-61
2022/01/27 09:12:08;;;;;;;40.83;17.40;;;;;;;5.20;92.56;102319.50;5013989;28;20026;-61
2022/01/27 09:14:34;;;;;;;42.90;19.63;;;;;;;5.20;93.10;102314.25;5016680;28;20029;-61
2022/01/27 09:16:59;;;;;;;38.35;17.75;;;;;;;5.24;92.26;102322.38;5016780;28;20022;-61
2022/01/27 09:19:26;;;;;;;43.03;19.38;;;;;;;5.26;92.96;102323.34;5016661;28;20030;-61
2022/01/27 09:21:54;;;;;;;38.15;17.92;;;;;;;5.26;92.51;102320.72;5016694;28;20021;-61
2022/01/27 09:24:26;;;;;;;37.30;16.85;;;;;;;5.31;92.55;102315.78;5016650;28;20026;-61
2022/01/27 09:26:58;;;;;;;;;;;;;;;5.34;91.59;102313.28;5016892;28;20460;-61
2022/01/27 09:29:23;;;;;;;39.45;17.88;;;;;;;5.36;92.03;102319.53;5016315;28;19923;-61
2022/01/27 09:31:49;;;;;;;35.05;16.35;;;;;;;5.39;92.40;102321.41;5016540;28;20109;-61
2022/01/27 09:34:15;;;;;;;38.75;18.33;;;;;;;5.39;92.95;102326.66;5016306;28;20050;-61
2022/01/27 09:36:40;;;;;;;42.00;19.25;;;;;;;5.41;93.72;102325.03;5016375;28;20076;-62
2022/01/27 09:39:06;;;;;;;38.75;18.55;;;;;;;5.43;93.07;102321.66;5016325;28;20033;-61
2022/01/27 09:41:36;;;;;;;35.70;17.60;;;;;;;5.45;93.39;102317.41;5016105;28;20080;-61
2022/01/27 09:44:02;;;;;;;35.47;16.48;;;;;;;5.48;93.35;102324.53;5016208;28;20391;-61
2022/01/27 09:46:28;;;;;;;36.30;18.15;;;;;;;5.51;93.39;102327.34;5016168;28;20026;-61
2022/01/27 09:48:54;;;;;;;33.25;17.83;;;;;;;5.55;93.74;102320.53;5015955;28;20029;-61
2022/01/27 09:53:50;;;;;;;33.78;16.90;;;;;;;5.58;93.34;102321.63;5016629;28;20499;-61
2022/01/27 09:56:16;;;;;;;34.90;18.38;;;;;;;5.58;93.44;102333.84;5015978;28;20030;-61
2022/01/27 09:58:41;;;;;;;32.63;16.60;;;;;;;5.61;93.31;102327.03;5015922;28;20117;-61
2022/01/27 10:01:07;;;;;;;29.33;16.38;;;;;;;5.63;93.54;102334.97;5015884;28;20364;-61
2022/01/27 10:03:32;;;;;;;30.65;16.65;;;;;;;5.63;93.50;102342.84;5016078;28;20033;-61
2022/01/27 10:06:15;;;;;;;28.30;15.70;;;;;;;5.66;93.94;102340.41;5015713;28;20018;-61
2022/01/27 10:08:41;;;;;;;32.30;16.63;;;;;;;5.66;94.12;102335.16;5015572;28;20113;-61
2022/01/27 10:11:19;;;;;;;31.73;16.50;;;;;;;5.68;93.84;102339.66;5015709;28;20026;-61
2022/01/27 10:13:47;;;;;;;27.55;15.88;;;;;;;5.70;93.57;102345.00;5015631;28;20026;-61
2022/01/27 10:16:41;;;;;;;28.90;15.57;;;;;;;5.68;94.08;102321.28;5015606;28;20034;-61
2022/01/27 10:19:08;;;;;;;29.15;16.20;;;;;;;5.71;94.08;102323.19;5015391;28;20022;-62
2022/01/27 10:21:34;;;;;;;28.65;15.13;;;;;;;5.75;93.60;102327.78;5015508;28;20065;-61
2022/01/27 10:24:27;;;;;;;26.67;15.57;;;;;;;5.77;94.42;102327.03;5015210;28;20072;-61
2022/01/27 10:30:36;;;;;;;;;;;;;;;5.82;93.46;102318.50;5015528;28;20103;-62
2022/01/27 10:32:51;;;;;;;29.00;14.48;;;;;;;5.82;94.21;102315.88;5012852;28;19913;-61
2022/01/27 10:35:21;;;;;;;24.20;13.48;;;;;;;5.83;93.83;102317.72;5015443;28;20033;-62
2022/01/27 10:38:05;;;;;;;27.55;14.80;;;;;;;5.84;94.53;102330.00;5015439;28;20033;-61
2022/01/27 10:40:30;;;;;;;23.23;13.88;;;;;;;5.86;94.32;102341.47;5015336;28;20096;-62
2022/01/27 10:43:05;;;;;;;26.25;14.65;;;;;;;5.89;94.11;102326.78;5015094;28;20491;-61
2022/01/27 10:45:30;;;;;;;23.08;14.18;;;;;;;5.89;94.77;102320.66;5014973;28;20037;-61
2022/01/27 10:48:13;;;;;;;25.05;13.68;;;;;;;5.89;94.85;102324.16;5014850;28;20030;-61
2022/01/27 10:50:51;;;;;;;27.15;14.40;;;;;;;5.94;94.64;102332.31;5014859;28;20117;-61
2022/01/27 10:53:18;;;;;;;25.90;14.80;;;;;;;5.93;94.48;102334.03;5015163;28;20045;-61
2022/01/27 10:55:45;;;;;;;21.80;12.18;;;;;;;5.96;94.47;102328.06;5014925;28;20054;-61
2022/01/27 10:58:26;;;;;;;26.15;14.02;;;;;;;5.97;95.21;102329.88;5014820;28;20029;-61
2022/01/27 11:00:57;;;;;;;21.58;13.75;;;;;;;6.01;94.75;102340.59;5014885;28;20018;-61
2022/01/27 11:03:23;;;;;;;21.70;13.38;;;;;;;6.02;95.11;102342.41;5014692;28;20030;-61
2022/01/27 11:05:50;;;;;;;23.10;13.23;;;;;;;6.06;95.45;102329.44;5014694;28;20068;-61
2022/01/27 11:08:19;;;;;;;19.83;12.35;;;;;;;6.09;94.84;102327.00;5014595;28;20092;-61
2022/01/27 11:10:48;;;;;;;21.73;13.32;;;;;;;6.10;94.91;102323.53;5014552;28;20398;-61
2022/01/27 11:13:16;;;;;;;18.80;13.35;;;;;;;6.14;94.90;102315.00;5014660;28;20030;-61
2022/01/27 11:15:42;;;;;;;21.90;14.02;;;;;;;6.17;94.98;102313.44;5014523;28;20029;-61
2022/01/27 11:18:19;;;;;;;21.63;13.70;;;;;;;6.20;95.11;102316.22;5014354;28;20125;-62
2022/01/27 11:21:05;;;;;;;21.77;12.30;;;;;;;6.24;94.68;102312.03;4996807;28;20032;-61
2022/01/27 11:26:07;;;;;;;23.60;14.68;;;;;;;6.29;95.32;102300.03;5014666;28;20054;-61
2022/01/27 11:28:33;;;;;;;24.92;13.68;;;;;;;6.33;95.36;102298.47;5013799;28;20491;-61
2022/01/27 11:31:17;;;;;;;24.67;14.63;;;;;;;6.36;95.82;102290.78;5014404;28;20049;-61
2022/01/27 11:33:56;;;;;;;23.50;14.02;;;;;;;6.41;95.73;102287.53;5013896;28;20448;-61
2022/01/27 11:36:24;;;;;;;23.58;14.02;;;;;;;6.44;95.77;102269.31;5013827;28;20018;-61
2022/01/27 11:38:49;;;;;;;23.08;14.63;;;;;;;6.49;95.53;102277.44;5014082;28;20084;-61
2022/01/27 11:41:36;;;;;;;25.98;14.45;;;;;;;6.55;95.91;102282.06;5014133;28;20025;-61
2022/01/27 11:44:23;;;;;;;25.20;15.10;;;;;;;6.58;95.77;102270.00;5014099;28;20099;-61
2022/01/27 11:47:18;;;;;;;25.85;12.10;;;;;;;6.64;95.36;102269.44;5013894;28;20034;-61
2022/01/27 11:50:06;;;;;;;23.40;13.13;;;;;;;6.66;95.57;102267.78;4953503;29;20174;-61
2022/01/27 11:52:34;;;;;;;22.63;12.43;;;;;;;6.68;95.88;102251.28;4953609;29;20067;-61
2022/01/27 11:55:24;;;;;;;23.58;13.05;;;;;;;6.71;95.27;102264.53;4953654;29;20039;-61
2022/01/27 11:57:54;;;;;;;23.90;12.85;;;;;;;6.72;96.03;102263.75;4953332;29;20023;-61
2022/01/27 12:00:22;;;;;;;23.10;12.27;;;;;;;6.75;95.53;102260.34;4953387;29;20042;-61
2022/01/27 12:03:02;;;;;;;24.48;12.55;;;;;;;6.78;95.30;102256.13;4953182;29;20039;-61
2022/01/27 12:05:36;;;;;;;25.08;11.32;;;;;;;6.81;95.48;102270.22;4953433;29;20050;-61